createdAt,value
2018-11-28T00:00:02.206Z,80.98
2018-11-28T00:01:02.197Z,80.98
2018-11-28T00:02:02.258Z,80.98
2018-11-28T00:03:02.179Z,81.19
2018-11-28T00:04:02.164Z,81.19
2018-11-28T00:05:02.153Z,81.19
2018-11-28T00:06:02.151Z,81.19
2018-11-28T00:07:02.221Z,80.77
2018-11-28T00:08:02.120Z,81.40
2018-11-28T00:09:02.113Z,81.09
2018-11-28T00:10:02.103Z,80.98
2018-11-28T00:11:02.091Z,81.71
2018-11-28T00:12:02.149Z,81.81
2018-11-28T00:13:02.069Z,81.81
2018-11-28T00:14:02.089Z,82.03
2018-11-28T00:15:02.050Z,81.71
2018-11-28T00:16:02.036Z,81.85
2018-11-28T00:17:02.090Z,82.27
2018-11-28T00:18:02.709Z,82.13
2018-11-28T00:19:02.006Z,82.13
2018-11-28T00:20:01.997Z,82.34
2018-11-28T00:21:01.988Z,82.44
2018-11-28T00:22:02.037Z,82.03
2018-11-28T00:23:01.982Z,82.34
2018-11-28T00:24:01.952Z,82.27
2018-11-28T00:25:01.946Z,82.44
2018-11-28T00:26:01.934Z,82.44
2018-11-28T00:27:01.986Z,82.44
2018-11-28T00:28:01.910Z,82.23
2018-11-28T00:29:01.901Z,82.65
2018-11-28T00:30:01.893Z,82.44
2018-11-28T00:31:01.883Z,82.34
2018-11-28T00:32:01.965Z,82.65
2018-11-28T00:33:01.860Z,82.44
2018-11-28T00:34:01.858Z,82.58
2018-11-28T00:35:01.839Z,82.68
2018-11-28T00:36:01.833Z,82.48
2018-11-28T00:37:01.889Z,82.48
2018-11-28T00:38:01.814Z,82.58
2018-11-28T00:39:02.695Z,82.65
2018-11-28T00:40:01.790Z,82.48
2018-11-28T00:41:01.781Z,82.44
2018-11-28T00:42:01.828Z,82.75
2018-11-28T00:43:01.756Z,82.54
2018-11-28T00:44:01.748Z,82.86
2018-11-28T00:45:01.737Z,82.75
2018-11-28T00:46:01.722Z,82.44
2018-11-28T00:47:01.774Z,82.54
2018-11-28T00:48:01.704Z,82.34
2018-11-28T00:49:02.198Z,82.54
2018-11-28T00:50:01.681Z,82.44
2018-11-28T00:51:01.671Z,82.54
2018-11-28T00:52:01.733Z,82.34
2018-11-28T00:53:01.653Z,82.40
2018-11-28T00:54:01.638Z,82.34
2018-11-28T00:55:01.630Z,82.34
2018-11-28T00:56:01.625Z,82.54
2018-11-28T00:57:01.672Z,82.34
2018-11-28T00:58:01.599Z,82.44
2018-11-28T00:59:01.587Z,82.44
2018-11-28T01:00:02.193Z,82.44
2018-11-28T01:01:01.566Z,82.34
2018-11-28T01:02:01.626Z,82.44
2018-11-28T01:03:01.545Z,82.44
2018-11-28T01:04:01.542Z,82.20
2018-11-28T01:05:01.538Z,82.44
2018-11-28T01:06:01.514Z,82.44
2018-11-28T01:07:01.591Z,82.44
2018-11-28T01:08:01.502Z,82.40
2018-11-28T01:09:01.483Z,82.44
2018-11-28T01:10:01.474Z,82.65
2018-11-28T01:11:01.464Z,82.40
2018-11-28T01:12:01.518Z,82.54
2018-11-28T01:13:01.444Z,82.40
2018-11-28T01:14:01.461Z,82.75
2018-11-28T01:15:01.417Z,82.96
2018-11-28T01:16:01.415Z,83.27
2018-11-28T01:17:01.462Z,82.96
2018-11-28T01:18:01.387Z,82.96
2018-11-28T01:19:01.378Z,83.06
2018-11-28T01:20:01.378Z,83.03
2018-11-28T01:21:02.186Z,82.86
2018-11-28T01:22:01.410Z,83.17
2018-11-28T01:23:01.336Z,82.82
2018-11-28T01:24:01.324Z,83.17
2018-11-28T01:25:01.320Z,82.86
2018-11-28T01:26:01.303Z,82.75
2018-11-28T01:27:01.358Z,83.23
2018-11-28T01:28:01.286Z,82.65
2018-11-28T01:29:01.274Z,83.17
2018-11-28T01:30:01.265Z,83.37
2018-11-28T01:31:01.254Z,84.00
2018-11-28T01:32:01.313Z,84.00
2018-11-28T01:33:01.234Z,83.80
2018-11-28T01:34:01.226Z,83.80
2018-11-28T01:35:01.213Z,84.06
2018-11-28T01:36:01.212Z,83.58
2018-11-28T01:37:01.190Z,83.80
2018-11-28T01:38:01.239Z,83.58
2018-11-28T01:39:01.169Z,83.27
2018-11-28T01:40:01.160Z,84.42
2018-11-28T01:41:01.148Z,84.17
2018-11-28T01:42:01.682Z,84.48
2018-11-28T01:43:01.189Z,84.52
2018-11-28T01:44:01.119Z,84.11
2018-11-28T01:45:01.105Z,84.17
2018-11-28T01:46:01.097Z,84.27
2018-11-28T01:47:01.085Z,84.31
2018-11-28T01:48:01.137Z,84.48
2018-11-28T01:49:01.097Z,84.42
2018-11-28T01:50:01.684Z,84.27
2018-11-28T01:51:01.044Z,83.54
2018-11-28T01:52:01.032Z,84.06
2018-11-28T01:53:01.088Z,83.34
2018-11-28T01:54:01.017Z,83.65
2018-11-28T01:55:00.999Z,83.44
2018-11-28T01:56:00.995Z,83.23
2018-11-28T01:57:00.980Z,83.34
2018-11-28T01:58:01.031Z,83.13
2018-11-28T01:59:00.957Z,83.54
2018-11-28T02:00:00.949Z,83.75
2018-11-28T02:01:00.939Z,83.34
2018-11-28T02:02:00.927Z,83.13
2018-11-28T02:03:01.265Z,83.23
2018-11-28T02:04:00.907Z,83.23
2018-11-28T02:05:00.897Z,83.44
2018-11-28T02:06:00.892Z,83.75
2018-11-28T02:07:00.878Z,83.96
2018-11-28T02:08:00.930Z,83.23
2018-11-28T02:09:00.855Z,83.34
2018-11-28T02:10:00.847Z,83.75
2018-11-28T02:11:00.834Z,83.86
2018-11-28T02:12:00.825Z,83.65
2018-11-28T02:13:00.876Z,83.86
2018-11-28T02:14:00.807Z,83.54
2018-11-28T02:15:00.793Z,83.96
2018-11-28T02:16:00.782Z,84.06
2018-11-28T02:17:00.774Z,83.44
2018-11-28T02:18:00.836Z,83.86
2018-11-28T02:19:00.754Z,83.34
2018-11-28T02:20:00.741Z,83.44
2018-11-28T02:21:00.732Z,83.65
2018-11-28T02:22:00.718Z,84.17
2018-11-28T02:23:00.778Z,83.75
2018-11-28T02:24:01.713Z,84.03
2018-11-28T02:25:00.699Z,84.17
2018-11-28T02:26:00.679Z,83.75
2018-11-28T02:27:00.669Z,83.86
2018-11-28T02:28:00.722Z,83.82
2018-11-28T02:29:00.646Z,83.75
2018-11-28T02:30:00.635Z,83.40
2018-11-28T02:31:00.623Z,83.51
2018-11-28T02:32:00.616Z,83.72
2018-11-28T02:33:00.681Z,83.61
2018-11-28T02:34:00.593Z,83.92
2018-11-28T02:35:00.586Z,83.82
2018-11-28T02:36:00.579Z,83.65
2018-11-28T02:37:00.560Z,84.13
2018-11-28T02:38:00.619Z,83.09
2018-11-28T02:39:00.547Z,83.72
2018-11-28T02:40:00.532Z,84.34
2018-11-28T02:41:00.534Z,84.17
2018-11-28T02:42:00.508Z,84.38
2018-11-28T02:43:00.558Z,84.06
2018-11-28T02:44:00.493Z,84.23
2018-11-28T02:45:01.180Z,84.06
2018-11-28T02:46:00.472Z,84.23
2018-11-28T02:47:00.459Z,84.13
2018-11-28T02:48:00.512Z,84.34
2018-11-28T02:49:00.435Z,84.03
2018-11-28T02:50:00.446Z,84.34
2018-11-28T02:51:00.414Z,84.03
2018-11-28T02:52:00.405Z,84.06
2018-11-28T02:53:00.470Z,84.03
2018-11-28T02:54:00.387Z,84.13
2018-11-28T02:55:00.372Z,84.13
2018-11-28T02:56:00.363Z,83.82
2018-11-28T02:57:00.351Z,84.13
2018-11-28T02:58:00.410Z,84.03
2018-11-28T02:59:00.327Z,84.13
2018-11-28T03:00:00.321Z,84.13
2018-11-28T03:01:00.309Z,84.34
2018-11-28T03:02:00.300Z,84.55
2018-11-28T03:03:00.350Z,84.55
2018-11-28T03:04:00.279Z,84.65
2018-11-28T03:05:00.267Z,83.89
2018-11-28T03:06:01.173Z,84.34
2018-11-28T03:07:00.264Z,84.30
2018-11-28T03:08:00.298Z,84.20
2018-11-28T03:09:00.225Z,83.99
2018-11-28T03:10:01.179Z,84.09
2018-11-28T03:11:00.207Z,84.51
2018-11-28T03:12:00.224Z,84.13
2018-11-28T03:13:00.257Z,84.30
2018-11-28T03:14:00.182Z,84.23
2018-11-28T03:15:00.166Z,83.99
2018-11-28T03:16:00.154Z,84.09
2018-11-28T03:17:00.155Z,83.99
2018-11-28T03:18:00.203Z,84.03
2018-11-28T03:19:00.144Z,84.72
2018-11-28T03:20:00.117Z,84.61
2018-11-28T03:21:00.110Z,84.61
2018-11-28T03:22:00.090Z,84.82
2018-11-28T03:23:00.151Z,84.61
2018-11-28T03:24:00.072Z,84.61
2018-11-28T03:25:00.061Z,85.65
2018-11-28T03:26:00.054Z,85.69
2018-11-28T03:27:00.730Z,85.44
2018-11-28T03:28:00.089Z,85.34
2018-11-28T03:29:00.021Z,85.55
2018-11-28T03:30:00.012Z,85.65
2018-11-28T03:31:00.017Z,85.44
2018-11-28T03:31:59.989Z,85.03
2018-11-28T03:33:00.053Z,85.24
2018-11-28T03:33:59.965Z,85.13
2018-11-28T03:34:59.959Z,85.44
2018-11-28T03:35:59.966Z,84.82
2018-11-28T03:36:59.935Z,85.34
2018-11-28T03:37:59.929Z,85.34
2018-11-28T03:39:00.030Z,85.55
2018-11-28T03:39:59.902Z,85.44
2018-11-28T03:40:59.896Z,85.34
2018-11-28T03:41:59.889Z,85.34
2018-11-28T03:42:59.889Z,85.34
2018-11-28T03:43:59.929Z,85.41
2018-11-28T03:44:59.859Z,85.55
2018-11-28T03:45:59.842Z,85.34
2018-11-28T03:46:59.841Z,85.44
2018-11-28T03:48:00.664Z,85.72
2018-11-28T03:48:59.882Z,85.03
2018-11-28T03:49:59.807Z,85.96
2018-11-28T03:51:00.662Z,85.86
2018-11-28T03:51:59.782Z,85.96
2018-11-28T03:52:59.773Z,85.75
2018-11-28T03:53:59.825Z,85.96
2018-11-28T03:54:59.750Z,85.96
2018-11-28T03:55:59.737Z,85.96
2018-11-28T03:56:59.729Z,86.07
2018-11-28T03:57:59.726Z,85.75
2018-11-28T03:58:59.778Z,85.72
2018-11-28T03:59:59.700Z,85.30
2018-11-28T04:00:59.687Z,84.99
2018-11-28T04:01:59.696Z,84.89
2018-11-28T04:02:59.666Z,85.30
2018-11-28T04:03:59.721Z,85.20
2018-11-28T04:04:59.645Z,84.78
2018-11-28T04:05:59.684Z,85.41
2018-11-28T04:06:59.629Z,85.10
2018-11-28T04:07:59.612Z,85.10
2018-11-28T04:09:00.233Z,85.30
2018-11-28T04:09:59.594Z,85.51
2018-11-28T04:10:59.585Z,85.20
2018-11-28T04:11:59.576Z,84.99
2018-11-28T04:12:59.562Z,84.99
2018-11-28T04:13:59.622Z,85.20
2018-11-28T04:14:59.540Z,85.10
2018-11-28T04:15:59.544Z,85.30
2018-11-28T04:16:59.517Z,85.51
2018-11-28T04:17:59.513Z,84.92
2018-11-28T04:18:59.578Z,85.24
2018-11-28T04:19:59.486Z,85.51
2018-11-28T04:20:59.478Z,85.51
2018-11-28T04:21:59.466Z,85.51
2018-11-28T04:22:59.459Z,84.68
2018-11-28T04:23:59.509Z,85.82
2018-11-28T04:24:59.436Z,85.72
2018-11-28T04:25:59.425Z,85.61
2018-11-28T04:26:59.420Z,85.72
2018-11-28T04:27:59.441Z,85.61
2018-11-28T04:28:59.457Z,84.41
2018-11-28T04:30:00.162Z,84.68
2018-11-28T04:30:59.446Z,84.68
2018-11-28T04:31:59.360Z,84.68
2018-11-28T04:32:59.356Z,84.58
2018-11-28T04:33:59.424Z,84.27
2018-11-28T04:34:59.329Z,84.37
2018-11-28T04:35:59.322Z,83.84
2018-11-28T04:36:59.337Z,84.16
2018-11-28T04:37:59.298Z,84.16
2018-11-28T04:38:59.351Z,84.33
2018-11-28T04:39:59.278Z,83.95
2018-11-28T04:40:59.272Z,84.27
2018-11-28T04:41:59.263Z,84.05
2018-11-28T04:42:59.249Z,84.37
2018-11-28T04:43:59.294Z,84.16
2018-11-28T04:44:59.225Z,83.74
2018-11-28T04:45:59.229Z,83.95
2018-11-28T04:46:59.205Z,83.84
2018-11-28T04:47:59.199Z,84.43
2018-11-28T04:48:59.272Z,83.91
2018-11-28T04:49:59.179Z,83.81
2018-11-28T04:51:01.197Z,84.68
2018-11-28T04:51:59.165Z,84.47
2018-11-28T04:52:59.143Z,84.68
2018-11-28T04:53:59.206Z,84.53
2018-11-28T04:54:59.119Z,84.58
2018-11-28T04:55:59.121Z,84.64
2018-11-28T04:56:59.106Z,84.64
2018-11-28T04:57:59.087Z,84.53
2018-11-28T04:58:59.138Z,84.22
2018-11-28T04:59:59.071Z,84.74
2018-11-28T05:00:59.058Z,84.64
2018-11-28T05:01:59.048Z,84.64
2018-11-28T05:02:59.033Z,84.22
2018-11-28T05:03:59.093Z,85.57
2018-11-28T05:04:59.015Z,85.88
2018-11-28T05:05:59.000Z,85.57
2018-11-28T05:06:58.990Z,85.41
2018-11-28T05:07:58.979Z,85.16
2018-11-28T05:08:59.039Z,85.05
2018-11-28T05:09:58.959Z,85.30
2018-11-28T05:10:58.953Z,85.20
2018-11-28T05:11:59.648Z,85.26
2018-11-28T05:12:58.939Z,85.26
2018-11-28T05:13:59.005Z,85.20
2018-11-28T05:14:58.905Z,84.99
2018-11-28T05:15:58.915Z,85.41
2018-11-28T05:16:58.883Z,85.41
2018-11-28T05:17:58.877Z,85.68
2018-11-28T05:18:58.927Z,85.41
2018-11-28T05:19:58.851Z,85.20
2018-11-28T05:20:58.845Z,85.41
2018-11-28T05:21:58.832Z,85.93
2018-11-28T05:22:58.823Z,85.93
2018-11-28T05:23:58.870Z,85.47
2018-11-28T05:24:58.802Z,85.82
2018-11-28T05:25:58.828Z,85.93
2018-11-28T05:26:58.782Z,85.61
2018-11-28T05:27:58.776Z,85.82
2018-11-28T05:28:58.817Z,85.99
2018-11-28T05:29:58.762Z,86.13
2018-11-28T05:30:58.734Z,85.82
2018-11-28T05:31:58.730Z,85.88
2018-11-28T05:32:59.641Z,86.09
2018-11-28T05:33:58.708Z,85.51
2018-11-28T05:34:58.779Z,86.24
2018-11-28T05:35:58.684Z,85.93
2018-11-28T05:36:58.675Z,85.82
2018-11-28T05:37:58.665Z,85.47
2018-11-28T05:38:58.651Z,85.99
2018-11-28T05:39:58.703Z,85.72
2018-11-28T05:40:58.627Z,85.82
2018-11-28T05:41:58.623Z,85.99
2018-11-28T05:42:58.611Z,85.16
2018-11-28T05:43:58.598Z,85.16
2018-11-28T05:44:58.665Z,85.36
2018-11-28T05:45:58.598Z,84.95
2018-11-28T05:46:58.565Z,84.95
2018-11-28T05:47:58.556Z,85.30
2018-11-28T05:48:58.545Z,84.95
2018-11-28T05:49:58.596Z,85.26
2018-11-28T05:50:58.524Z,84.99
2018-11-28T05:51:58.517Z,85.26
2018-11-28T05:52:58.508Z,85.36
2018-11-28T05:53:59.137Z,85.36
2018-11-28T05:54:58.542Z,85.05
2018-11-28T05:55:58.475Z,85.36
2018-11-28T05:56:58.460Z,85.47
2018-11-28T05:57:58.450Z,85.47
2018-11-28T05:58:58.439Z,85.16
2018-11-28T05:59:58.489Z,85.36
2018-11-28T06:00:58.421Z,85.05
2018-11-28T06:01:58.407Z,84.99
2018-11-28T06:02:58.397Z,85.26
2018-11-28T06:03:58.388Z,85.41
2018-11-28T06:04:58.435Z,85.47
2018-11-28T06:05:58.362Z,85.41
2018-11-28T06:06:58.353Z,85.93
2018-11-28T06:07:58.343Z,85.93
2018-11-28T06:08:58.340Z,85.78
2018-11-28T06:09:58.382Z,85.99
2018-11-28T06:10:58.314Z,85.82
2018-11-28T06:11:58.302Z,85.88
2018-11-28T06:12:58.291Z,85.68
2018-11-28T06:13:58.278Z,85.36
2018-11-28T06:14:58.704Z,85.16
2018-11-28T06:15:58.257Z,84.84
2018-11-28T06:16:58.254Z,85.16
2018-11-28T06:17:58.236Z,84.95
2018-11-28T06:18:58.226Z,84.95
2018-11-28T06:19:58.277Z,85.64
2018-11-28T06:20:58.209Z,85.47
2018-11-28T06:21:58.194Z,85.88
2018-11-28T06:22:58.185Z,85.88
2018-11-28T06:23:58.174Z,85.78
2018-11-28T06:24:58.222Z,85.78
2018-11-28T06:25:58.149Z,85.64
2018-11-28T06:26:58.144Z,85.64
2018-11-28T06:27:58.132Z,85.99
2018-11-28T06:28:58.124Z,86.19
2018-11-28T06:29:58.175Z,85.78
2018-11-28T06:30:58.099Z,85.78
2018-11-28T06:31:58.091Z,85.64
2018-11-28T06:32:58.078Z,86.05
2018-11-28T06:33:58.069Z,85.74
2018-11-28T06:34:58.115Z,85.78
2018-11-28T06:35:58.634Z,85.74
2018-11-28T06:36:58.036Z,85.43
2018-11-28T06:37:58.094Z,85.95
2018-11-28T06:38:58.013Z,85.78
2018-11-28T06:39:58.072Z,86.36
2018-11-28T06:40:57.995Z,85.85
2018-11-28T06:41:58.023Z,85.53
2018-11-28T06:42:57.976Z,85.74
2018-11-28T06:43:57.962Z,86.05
2018-11-28T06:44:58.017Z,85.85
2018-11-28T06:45:57.939Z,85.64
2018-11-28T06:46:57.929Z,85.74
2018-11-28T06:47:57.918Z,85.53
2018-11-28T06:48:57.911Z,85.74
2018-11-28T06:49:57.957Z,86.16
2018-11-28T06:50:57.890Z,85.74
2018-11-28T06:51:58.629Z,85.85
2018-11-28T06:52:57.867Z,86.05
2018-11-28T06:53:57.857Z,86.16
2018-11-28T06:54:57.909Z,86.47
2018-11-28T06:55:57.831Z,86.26
2018-11-28T06:56:58.630Z,85.74
2018-11-28T06:57:57.816Z,85.85
2018-11-28T06:58:57.802Z,85.85
2018-11-28T06:59:57.851Z,86.05
2018-11-28T07:00:57.780Z,86.05
2018-11-28T07:01:57.768Z,86.16
2018-11-28T07:02:57.759Z,86.05
2018-11-28T07:03:57.747Z,85.71
2018-11-28T07:04:57.799Z,86.26
2018-11-28T07:05:57.768Z,86.05
2018-11-28T07:06:57.717Z,86.36
2018-11-28T07:07:57.709Z,86.16
2018-11-28T07:08:57.699Z,85.95
2018-11-28T07:09:57.753Z,85.74
2018-11-28T07:10:57.673Z,85.64
2018-11-28T07:11:57.670Z,85.64
2018-11-28T07:12:57.652Z,85.74
2018-11-28T07:13:57.647Z,85.95
2018-11-28T07:14:57.695Z,85.81
2018-11-28T07:15:57.619Z,85.22
2018-11-28T07:16:57.610Z,85.19
2018-11-28T07:17:58.125Z,85.29
2018-11-28T07:18:57.588Z,85.64
2018-11-28T07:19:57.641Z,85.53
2018-11-28T07:20:57.566Z,85.29
2018-11-28T07:21:57.556Z,85.19
2018-11-28T07:22:57.559Z,85.22
2018-11-28T07:23:57.535Z,85.19
2018-11-28T07:24:57.586Z,84.98
2018-11-28T07:25:57.512Z,84.91
2018-11-28T07:26:57.500Z,85.19
2018-11-28T07:27:57.493Z,84.88
2018-11-28T07:28:57.482Z,85.29
2018-11-28T07:29:57.539Z,85.29
2018-11-28T07:30:57.463Z,85.50
2018-11-28T07:31:57.451Z,85.50
2018-11-28T07:32:57.437Z,85.39
2018-11-28T07:33:57.425Z,85.50
2018-11-28T07:34:57.417Z,85.71
2018-11-28T07:35:57.469Z,84.46
2018-11-28T07:36:57.397Z,84.56
2018-11-28T07:37:57.383Z,84.67
2018-11-28T07:38:58.125Z,84.36
2018-11-28T07:39:57.365Z,84.46
2018-11-28T07:40:57.420Z,84.56
2018-11-28T07:41:57.342Z,84.31
2018-11-28T07:42:57.329Z,84.56
2018-11-28T07:43:57.321Z,84.36
2018-11-28T07:44:57.311Z,84.00
2018-11-28T07:45:57.358Z,84.00
2018-11-28T07:46:57.289Z,83.80
2018-11-28T07:47:57.279Z,84.00
2018-11-28T07:48:57.270Z,83.69
2018-11-28T07:49:57.256Z,83.90
2018-11-28T07:50:57.307Z,83.90
2018-11-28T07:51:57.240Z,84.21
2018-11-28T07:52:57.230Z,83.07
2018-11-28T07:53:57.214Z,83.17
2018-11-28T07:54:57.209Z,83.38
2018-11-28T07:55:57.253Z,84.00
2018-11-28T07:56:57.181Z,83.28
2018-11-28T07:57:57.171Z,83.55
2018-11-28T07:58:57.162Z,83.48
2018-11-28T07:59:58.113Z,83.59
2018-11-28T08:00:57.213Z,83.45
2018-11-28T08:01:57.131Z,83.80
2018-11-28T08:02:57.131Z,83.45
2018-11-28T08:03:57.106Z,83.24
2018-11-28T08:04:57.097Z,83.55
2018-11-28T08:05:57.146Z,83.24
2018-11-28T08:06:57.077Z,83.03
2018-11-28T08:07:57.072Z,83.17
2018-11-28T08:08:57.067Z,83.24
2018-11-28T08:09:57.046Z,82.82
2018-11-28T08:10:57.096Z,83.24
2018-11-28T08:11:57.025Z,83.14
2018-11-28T08:12:57.019Z,83.45
2018-11-28T08:13:57.002Z,83.65
2018-11-28T08:14:56.991Z,83.24
2018-11-28T08:15:57.044Z,83.34
2018-11-28T08:16:56.977Z,82.93
2018-11-28T08:17:56.960Z,83.03
2018-11-28T08:18:56.951Z,83.45
2018-11-28T08:19:56.939Z,83.24
2018-11-28T08:20:57.181Z,83.24
2018-11-28T08:21:56.919Z,82.93
2018-11-28T08:22:56.909Z,83.03
2018-11-28T08:23:56.898Z,82.51
2018-11-28T08:24:56.890Z,83.03
2018-11-28T08:25:56.935Z,82.51
2018-11-28T08:26:56.868Z,82.31
2018-11-28T08:27:56.949Z,82.68
2018-11-28T08:28:56.846Z,82.93
2018-11-28T08:29:56.832Z,82.82
2018-11-28T08:30:56.881Z,82.51
2018-11-28T08:31:56.811Z,82.62
2018-11-28T08:32:56.810Z,82.48
2018-11-28T08:33:56.788Z,82.68
2018-11-28T08:34:56.779Z,82.58
2018-11-28T08:35:56.834Z,82.68
2018-11-28T08:36:56.758Z,82.89
2018-11-28T08:37:56.751Z,82.68
2018-11-28T08:38:56.743Z,82.68
2018-11-28T08:39:56.725Z,82.37
2018-11-28T08:40:56.776Z,82.37
2018-11-28T08:41:57.613Z,82.58
2018-11-28T08:42:56.693Z,82.58
2018-11-28T08:43:56.681Z,82.89
2018-11-28T08:44:56.672Z,82.27
2018-11-28T08:45:56.726Z,82.48
2018-11-28T08:46:56.651Z,82.17
2018-11-28T08:47:56.644Z,82.06
2018-11-28T08:48:56.629Z,82.17
2018-11-28T08:49:56.623Z,82.06
2018-11-28T08:50:56.673Z,81.96
2018-11-28T08:51:56.597Z,82.58
2018-11-28T08:52:57.107Z,82.37
2018-11-28T08:53:56.579Z,82.17
2018-11-28T08:54:56.570Z,82.34
2018-11-28T08:55:56.625Z,81.96
2018-11-28T08:56:56.546Z,82.13
2018-11-28T08:57:56.532Z,81.92
2018-11-28T08:58:56.548Z,82.03
2018-11-28T08:59:56.514Z,82.03
2018-11-28T09:00:56.563Z,81.96
2018-11-28T09:01:56.490Z,81.92
2018-11-28T09:02:57.106Z,81.92
2018-11-28T09:03:56.470Z,81.82
2018-11-28T09:04:56.459Z,81.92
2018-11-28T09:05:56.520Z,82.03
2018-11-28T09:06:56.442Z,81.92
2018-11-28T09:07:56.427Z,81.82
2018-11-28T09:08:56.418Z,81.40
2018-11-28T09:09:56.441Z,81.71
2018-11-28T09:10:56.458Z,81.40
2018-11-28T09:11:56.389Z,81.92
2018-11-28T09:12:56.374Z,81.40
2018-11-28T09:13:56.362Z,81.68
2018-11-28T09:14:56.353Z,81.51
2018-11-28T09:15:56.402Z,81.51
2018-11-28T09:16:56.335Z,81.26
2018-11-28T09:17:56.326Z,81.57
2018-11-28T09:18:56.311Z,81.57
2018-11-28T09:19:56.302Z,81.71
2018-11-28T09:20:56.375Z,81.57
2018-11-28T09:21:56.286Z,81.47
2018-11-28T09:22:56.292Z,81.47
2018-11-28T09:23:57.103Z,80.95
2018-11-28T09:24:56.248Z,80.95
2018-11-28T09:25:56.236Z,81.26
2018-11-28T09:26:56.288Z,81.37
2018-11-28T09:27:56.215Z,81.37
2018-11-28T09:28:56.206Z,81.05
2018-11-28T09:29:56.197Z,80.85
2018-11-28T09:30:56.186Z,80.85
2018-11-28T09:31:56.235Z,80.29
2018-11-28T09:32:56.167Z,80.60
2018-11-28T09:33:56.152Z,80.64
2018-11-28T09:34:56.151Z,80.54
2018-11-28T09:35:56.134Z,80.81
2018-11-28T09:36:56.184Z,80.50
2018-11-28T09:37:56.111Z,80.40
2018-11-28T09:38:56.099Z,80.50
2018-11-28T09:39:56.093Z,80.40
2018-11-28T09:40:56.077Z,79.88
2018-11-28T09:41:56.135Z,80.08
2018-11-28T09:42:56.063Z,79.98
2018-11-28T09:43:56.046Z,79.94
2018-11-28T09:44:56.670Z,79.47
2018-11-28T09:45:56.027Z,79.47
2018-11-28T09:46:58.170Z,79.57
2018-11-28T09:47:56.009Z,79.94
2018-11-28T09:48:55.997Z,79.74
2018-11-28T09:49:55.981Z,80.05
2018-11-28T09:50:55.968Z,79.74
2018-11-28T09:51:56.469Z,79.74
2018-11-28T09:52:55.989Z,79.74
2018-11-28T09:53:56.015Z,79.94
2018-11-28T09:54:55.929Z,79.53
2018-11-28T09:55:55.917Z,79.53
2018-11-28T09:56:55.977Z,79.53
2018-11-28T09:57:56.034Z,79.84
2018-11-28T09:58:56.080Z,79.84
2018-11-28T09:59:55.876Z,79.33
2018-11-28T10:00:55.865Z,79.33
2018-11-28T10:01:55.914Z,79.43
2018-11-28T10:02:55.840Z,79.53
2018-11-28T10:03:55.834Z,79.02
2018-11-28T10:04:55.821Z,79.33
2018-11-28T10:05:56.595Z,79.33
2018-11-28T10:06:55.862Z,78.98
2018-11-28T10:07:55.805Z,78.88
2018-11-28T10:08:55.780Z,78.91
2018-11-28T10:09:55.766Z,78.67
2018-11-28T10:10:55.757Z,78.67
2018-11-28T10:11:55.810Z,78.88
2018-11-28T10:12:55.733Z,78.56
2018-11-28T10:13:55.721Z,78.88
2018-11-28T10:14:55.715Z,78.60
2018-11-28T10:15:55.704Z,78.91
2018-11-28T10:16:56.200Z,79.29
2018-11-28T10:17:55.685Z,79.12
2018-11-28T10:18:55.676Z,79.08
2018-11-28T10:19:55.659Z,78.88
2018-11-28T10:20:55.649Z,78.91
2018-11-28T10:21:55.699Z,78.77
2018-11-28T10:22:55.629Z,78.77
2018-11-28T10:23:55.615Z,79.08
2018-11-28T10:24:55.608Z,78.81
2018-11-28T10:25:55.605Z,78.88
2018-11-28T10:26:56.171Z,78.88
2018-11-28T10:27:55.575Z,78.77
2018-11-28T10:28:55.563Z,78.77
2018-11-28T10:29:55.554Z,78.88
2018-11-28T10:30:55.541Z,79.08
2018-11-28T10:31:55.603Z,79.08
2018-11-28T10:32:55.525Z,78.77
2018-11-28T10:33:55.513Z,79.02
2018-11-28T10:34:55.501Z,78.88
2018-11-28T10:35:55.490Z,78.77
2018-11-28T10:36:55.538Z,78.98
2018-11-28T10:37:55.468Z,78.77
2018-11-28T10:38:55.457Z,78.77
2018-11-28T10:39:55.455Z,78.98
2018-11-28T10:40:55.436Z,78.88
2018-11-28T10:41:55.490Z,78.98
2018-11-28T10:42:55.415Z,78.98
2018-11-28T10:43:55.403Z,78.77
2018-11-28T10:44:55.436Z,78.88
2018-11-28T10:45:55.382Z,79.08
2018-11-28T10:46:55.437Z,78.98
2018-11-28T10:47:56.096Z,79.29
2018-11-28T10:48:55.352Z,79.19
2018-11-28T10:49:55.343Z,78.88
2018-11-28T10:50:55.329Z,78.56
2018-11-28T10:52:06.328Z,78.98
2018-11-28T10:52:57.955Z,78.88
2018-11-28T10:54:02.954Z,78.56
2018-11-28T10:55:03.023Z,78.53
2018-11-28T10:56:01.884Z,78.74
2018-11-28T10:57:06.922Z,78.74
2018-11-28T10:58:01.754Z,78.98
2018-11-28T10:59:08.990Z,78.63
2018-11-28T11:00:08.136Z,78.84
2018-11-28T11:01:08.893Z,78.94
2018-11-28T11:02:11.384Z,78.74
2018-11-28T11:03:03.744Z,78.74
2018-11-28T11:04:01.766Z,78.11
2018-11-28T11:05:02.894Z,77.67
2018-11-28T11:06:01.733Z,77.67
2018-11-28T11:07:06.279Z,77.67
2018-11-28T11:08:01.704Z,77.67
2018-11-28T11:09:31.087Z,77.04
2018-11-28T11:09:55.822Z,77.15
2018-11-28T11:10:55.354Z,77.25
2018-11-28T11:11:55.102Z,77.25
2018-11-28T11:12:55.285Z,76.64
2018-11-28T11:13:55.087Z,76.84
2018-11-28T11:14:55.074Z,77.01
2018-11-28T11:15:55.065Z,76.50
2018-11-28T11:16:55.077Z,76.90
2018-11-28T11:17:55.110Z,77.01
2018-11-28T11:18:55.027Z,76.90
2018-11-28T11:19:55.018Z,76.50
2018-11-28T11:20:55.006Z,75.98
2018-11-28T11:21:54.997Z,76.35
2018-11-28T11:22:55.049Z,76.81
2018-11-28T11:23:54.976Z,76.39
2018-11-28T11:24:54.967Z,76.18
2018-11-28T11:25:54.955Z,76.39
2018-11-28T11:26:54.948Z,76.22
2018-11-28T11:27:54.994Z,76.50
2018-11-28T11:28:55.585Z,76.29
2018-11-28T11:29:54.911Z,76.60
2018-11-28T11:30:54.904Z,75.98
2018-11-28T11:31:54.892Z,76.46
2018-11-28T11:32:54.942Z,76.08
2018-11-28T11:33:54.869Z,76.08
2018-11-28T11:34:54.857Z,76.50
2018-11-28T11:35:54.845Z,76.29
2018-11-28T11:36:54.842Z,76.39
2018-11-28T11:37:54.891Z,75.98
2018-11-28T11:38:54.817Z,76.08
2018-11-28T11:39:54.806Z,75.74
2018-11-28T11:40:54.808Z,75.63
2018-11-28T11:41:54.782Z,75.74
2018-11-28T11:42:54.834Z,75.32
2018-11-28T11:43:54.784Z,75.22
2018-11-28T11:44:54.805Z,75.74
2018-11-28T11:45:54.743Z,75.43
2018-11-28T11:46:54.737Z,75.53
2018-11-28T11:47:54.789Z,74.95
2018-11-28T11:48:54.708Z,75.95
2018-11-28T11:49:55.584Z,75.12
2018-11-28T11:50:55.164Z,75.77
2018-11-28T11:51:54.678Z,75.63
2018-11-28T11:52:54.733Z,75.95
2018-11-28T11:53:54.659Z,75.22
2018-11-28T11:54:54.653Z,75.22
2018-11-28T11:55:54.635Z,75.12
2018-11-28T11:56:54.627Z,75.84
2018-11-28T11:57:54.680Z,75.01
2018-11-28T11:58:54.603Z,75.43
2018-11-28T11:59:54.589Z,74.81
2018-11-28T12:00:54.580Z,75.29
2018-11-28T12:01:54.921Z,74.98
2018-11-28T12:02:54.660Z,74.67
2018-11-28T12:03:57.208Z,74.98
2018-11-28T12:04:54.543Z,74.77
2018-11-28T12:05:54.801Z,74.22
2018-11-28T12:06:54.515Z,74.02
2018-11-28T12:07:54.573Z,74.53
2018-11-28T12:08:54.498Z,74.12
2018-11-28T12:09:54.485Z,73.71
2018-11-28T12:10:55.079Z,74.08
2018-11-28T12:11:54.463Z,73.26
2018-11-28T12:12:54.523Z,73.47
2018-11-28T12:13:54.440Z,73.68
2018-11-28T12:14:54.431Z,73.26
2018-11-28T12:15:54.427Z,73.36
2018-11-28T12:16:54.410Z,73.47
2018-11-28T12:17:54.465Z,73.05
2018-11-28T12:18:54.389Z,73.47
2018-11-28T12:19:54.376Z,72.96
2018-11-28T12:20:54.365Z,73.26
2018-11-28T12:21:54.359Z,73.47
2018-11-28T12:22:54.414Z,73.36
2018-11-28T12:23:54.333Z,73.57
2018-11-28T12:24:54.323Z,73.50
2018-11-28T12:25:54.314Z,74.22
2018-11-28T12:26:54.306Z,73.71
2018-11-28T12:27:54.358Z,73.81
2018-11-28T12:28:54.285Z,74.02
2018-11-28T12:29:54.275Z,74.74
2018-11-28T12:30:54.261Z,74.33
2018-11-28T12:31:55.075Z,74.33
2018-11-28T12:32:54.303Z,74.53
2018-11-28T12:33:54.230Z,74.43
2018-11-28T12:34:54.220Z,74.63
2018-11-28T12:35:54.209Z,74.43
2018-11-28T12:36:54.211Z,74.74
2018-11-28T12:37:54.259Z,75.29
2018-11-28T12:38:54.190Z,74.63
2018-11-28T12:39:54.163Z,74.74
2018-11-28T12:40:54.169Z,74.95
2018-11-28T12:41:54.144Z,75.05
2018-11-28T12:42:54.129Z,75.36
2018-11-28T12:43:54.245Z,74.53
2018-11-28T12:44:54.114Z,75.15
2018-11-28T12:45:54.097Z,75.77
2018-11-28T12:46:54.085Z,74.43
2018-11-28T12:47:54.080Z,75.05
2018-11-28T12:48:54.130Z,75.05
2018-11-28T12:49:54.053Z,74.53
2018-11-28T12:50:54.041Z,74.43
2018-11-28T12:51:54.034Z,74.43